createdAt,value
2022-11-12T00:01:55.920Z,14.32
2022-11-12T00:04:23.627Z,16.08
2022-11-12T00:06:52.693Z,15.95
2022-11-12T00:09:20.631Z,13.55
2022-11-12T00:11:48.323Z,14.02
2022-11-12T00:14:15.935Z,14.15
2022-11-12T00:16:43.621Z,14.13
2022-11-12T00:19:11.345Z,14.48
2022-11-12T00:21:39.036Z,14.85
2022-11-12T00:24:08.353Z,14.27
2022-11-12T00:26:36.308Z,14.70
2022-11-12T00:29:04.225Z,15.57
2022-11-12T00:31:31.958Z,14.60
2022-11-12T00:33:59.630Z,15.55
2022-11-12T00:36:27.263Z,14.25
2022-11-12T00:38:54.978Z,15.32
2022-11-12T00:41:24.030Z,13.93
2022-11-12T00:43:51.679Z,14.15
2022-11-12T00:46:19.315Z,13.07
2022-11-12T00:48:46.957Z,13.40
2022-11-12T00:51:14.631Z,12.95
2022-11-12T00:53:42.300Z,13.57
2022-11-12T00:56:10.832Z,12.82
2022-11-12T00:58:39.887Z,13.25
2022-11-12T01:01:09.577Z,13.57
2022-11-12T01:03:37.795Z,12.68
2022-11-12T01:06:06.111Z,11.68
2022-11-12T01:08:34.020Z,11.82
2022-11-12T01:11:07.139Z,13.57
2022-11-12T01:13:37.718Z,13.18
2022-11-12T01:16:10.047Z,12.93
2022-11-12T01:18:37.916Z,13.02
2022-11-12T01:21:07.568Z,13.82
2022-11-12T01:23:36.710Z,11.43
2022-11-12T01:26:05.461Z,12.45
2022-11-12T01:28:33.299Z,13.43
2022-11-12T01:31:13.555Z,12.93
2022-11-12T01:33:41.212Z,16.63
2022-11-12T01:36:09.771Z,12.80
2022-11-12T01:38:38.296Z,18.60
2022-11-12T01:41:07.514Z,13.82
2022-11-12T01:43:35.285Z,12.43
2022-11-12T01:46:05.449Z,12.93
2022-11-12T01:48:36.642Z,13.55
2022-11-12T01:51:05.177Z,15.33
2022-11-12T01:53:36.379Z,11.73
2022-11-12T01:56:05.073Z,13.52
2022-11-12T01:58:33.914Z,13.27
2022-11-12T02:01:02.229Z,12.02
2022-11-12T02:03:29.971Z,13.75
2022-11-12T02:06:02.911Z,13.25
2022-11-12T02:08:31.382Z,13.57
2022-11-12T02:10:59.152Z,14.18
2022-11-12T02:13:44.138Z,12.27
2022-11-12T02:16:12.054Z,11.63
2022-11-12T02:18:39.892Z,11.90
2022-11-12T02:21:10.410Z,13.27
2022-11-12T02:23:39.654Z,12.80
2022-11-12T02:26:07.389Z,13.27
2022-11-12T02:28:35.085Z,12.57
2022-11-12T02:31:02.767Z,12.63
2022-11-12T02:33:30.434Z,12.55
2022-11-12T02:35:58.122Z,11.55
2022-11-12T02:38:25.992Z,12.20
2022-11-12T02:40:55.269Z,10.80
2022-11-12T02:43:22.905Z,10.80
2022-11-12T02:45:50.592Z,12.98
2022-11-12T02:48:19.407Z,13.05
2022-11-12T02:50:48.384Z,13.20
2022-11-12T02:53:16.038Z,11.90
2022-11-12T02:55:43.972Z,10.77
2022-11-12T02:58:13.047Z,12.15
2022-11-12T03:00:40.853Z,11.68
2022-11-12T03:03:08.612Z,12.25
2022-11-12T03:05:37.166Z,11.05
2022-11-12T03:08:07.011Z,10.90
2022-11-12T03:10:35.048Z,11.02
2022-11-12T03:13:02.712Z,11.32
2022-11-12T03:15:32.185Z,11.23
2022-11-12T03:18:00.471Z,10.80
2022-11-12T03:20:28.456Z,12.23
2022-11-12T03:22:57.464Z,11.52
2022-11-12T03:25:25.595Z,10.82
2022-11-12T03:28:00.153Z,12.07
2022-11-12T03:30:28.552Z,13.02
2022-11-12T03:32:57.707Z,13.18
2022-11-12T03:35:26.736Z,15.75
2022-11-12T03:37:54.466Z,16.63
2022-11-12T03:40:22.169Z,14.20
2022-11-12T03:42:51.321Z,14.93
2022-11-12T03:45:20.216Z,14.75
2022-11-12T03:47:49.320Z,12.40
2022-11-12T03:50:19.982Z,13.13
2022-11-12T03:52:48.518Z,12.68
2022-11-12T03:55:18.253Z,12.82
2022-11-12T03:57:46.145Z,18.95
2022-11-12T04:00:14.645Z,19.67
2022-11-12T04:02:42.306Z,18.02
2022-11-12T04:05:28.551Z,23.02
2022-11-12T04:08:19.000Z,21.85
2022-11-12T04:10:46.785Z,16.73
2022-11-12T04:13:29.724Z,16.85
2022-11-12T04:16:16.419Z,18.40
2022-11-12T04:19:02.668Z,19.30
2022-11-12T04:21:50.378Z,22.58
2022-11-12T04:24:37.659Z,19.98
2022-11-12T04:27:05.765Z,23.58
2022-11-12T04:29:51.003Z,21.30
2022-11-12T04:32:19.138Z,18.02
2022-11-12T04:34:46.983Z,17.95
2022-11-12T04:37:14.685Z,20.33
2022-11-12T04:39:43.711Z,19.27
2022-11-12T04:42:29.092Z,12.60
2022-11-12T04:45:03.967Z,17.85
2022-11-12T04:47:34.673Z,18.42
2022-11-12T04:50:03.282Z,11.90
2022-11-12T04:52:31.544Z,12.35
2022-11-12T04:55:01.133Z,13.57
2022-11-12T04:57:28.759Z,14.98
2022-11-12T04:59:56.400Z,17.80
2022-11-12T05:02:24.064Z,16.05
2022-11-12T05:04:51.729Z,12.52
2022-11-12T05:07:19.502Z,18.23
2022-11-12T05:09:47.308Z,12.63
2022-11-12T05:12:16.404Z,13.70
2022-11-12T05:14:44.032Z,11.05
2022-11-12T05:17:11.658Z,10.57
2022-11-12T05:19:39.277Z,13.15
2022-11-12T05:22:06.016Z,12.65
2022-11-12T05:24:41.915Z,11.73
2022-11-12T05:27:12.696Z,11.45
2022-11-12T05:29:41.852Z,12.98
2022-11-12T05:32:10.629Z,10.77
2022-11-12T05:34:38.352Z,11.75
2022-11-12T05:37:08.103Z,15.93
2022-11-12T05:39:35.838Z,11.38
2022-11-12T05:42:12.972Z,15.32
2022-11-12T05:44:43.090Z,14.90
2022-11-12T05:47:10.842Z,11.75
2022-11-12T05:49:38.498Z,12.95
2022-11-12T05:52:06.215Z,12.38
2022-11-12T05:54:33.920Z,10.95
2022-11-12T05:57:01.565Z,16.10
2022-11-12T05:59:29.377Z,21.58
2022-11-12T06:01:58.490Z,13.70
2022-11-12T06:04:26.256Z,14.57
2022-11-12T06:06:53.998Z,11.68
2022-11-12T06:09:21.658Z,11.45
2022-11-12T06:11:49.373Z,12.98
2022-11-12T06:14:17.052Z,14.15
2022-11-12T06:16:44.664Z,12.60
2022-11-12T06:19:13.703Z,11.20
2022-11-12T06:21:41.445Z,12.90
2022-11-12T06:24:09.687Z,16.88
2022-11-12T06:26:37.997Z,14.38
2022-11-12T06:29:05.837Z,18.55
2022-11-12T06:31:33.576Z,13.77
2022-11-12T06:34:01.324Z,17.23
2022-11-12T06:36:30.344Z,15.63
2022-11-12T06:38:58.062Z,19.13
2022-11-12T06:41:25.732Z,17.45
2022-11-12T06:43:53.427Z,13.48
2022-11-12T06:46:21.140Z,14.38
2022-11-12T06:48:48.851Z,17.33
2022-11-12T06:51:18.509Z,17.90
2022-11-12T06:53:48.239Z,16.95
2022-11-12T06:56:16.781Z,19.20
2022-11-12T06:58:44.689Z,16.75
2022-11-12T07:01:15.107Z,14.98
2022-11-12T07:03:44.084Z,15.20
2022-11-12T07:06:13.593Z,29.15
2022-11-12T07:08:42.104Z,26.85
2022-11-12T07:11:11.377Z,14.27
2022-11-12T07:13:39.388Z,25.70
2022-11-12T07:16:08.842Z,22.45
2022-11-12T07:18:36.578Z,16.75
2022-11-12T07:21:07.075Z,16.10
2022-11-12T07:23:36.391Z,17.48
2022-11-12T07:26:06.467Z,14.20
2022-11-12T07:28:35.712Z,20.23
2022-11-12T07:31:05.804Z,17.73
2022-11-12T07:33:34.708Z,12.55
2022-11-12T07:36:04.415Z,15.52
2022-11-12T07:38:33.359Z,16.30
2022-11-12T07:41:02.353Z,12.68
2022-11-12T07:43:30.679Z,14.45
2022-11-12T07:46:10.103Z,12.63
2022-11-12T07:48:38.525Z,13.20
2022-11-12T07:51:08.330Z,17.90
2022-11-12T07:53:36.019Z,14.02
2022-11-12T07:56:04.802Z,16.95
2022-11-12T07:58:33.798Z,14.35
2022-11-12T08:01:10.247Z,15.00
2022-11-12T08:03:38.220Z,13.85
2022-11-12T08:06:06.255Z,15.98
2022-11-12T08:08:33.934Z,13.18
2022-11-12T08:11:01.680Z,13.85
2022-11-12T08:13:29.308Z,15.32
2022-11-12T08:15:58.326Z,12.82
2022-11-12T08:18:28.101Z,13.73
2022-11-12T08:21:00.587Z,14.82
2022-11-12T08:23:28.368Z,13.07
2022-11-12T08:25:59.500Z,14.95
2022-11-12T08:28:27.897Z,13.15
2022-11-12T08:30:56.660Z,13.45
2022-11-12T08:33:25.213Z,12.75
2022-11-12T08:35:54.223Z,13.65
2022-11-12T08:38:21.818Z,12.93
2022-11-12T08:40:49.572Z,13.38
2022-11-12T08:43:17.265Z,14.95
2022-11-12T08:45:44.924Z,15.15
2022-11-12T08:48:14.322Z,13.75
2022-11-12T08:50:42.250Z,14.80
2022-11-12T08:53:13.284Z,17.23
2022-11-12T08:55:41.128Z,18.73
2022-11-12T08:58:10.795Z,12.75
2022-11-12T09:00:40.413Z,14.60
2022-11-12T09:03:13.568Z,14.57
2022-11-12T09:05:41.323Z,13.95
2022-11-12T09:08:12.023Z,23.17
2022-11-12T09:10:40.259Z,14.15
2022-11-12T09:13:08.031Z,15.27
2022-11-12T09:15:38.287Z,13.32
2022-11-12T09:18:08.187Z,16.55
2022-11-12T09:20:36.129Z,13.27
2022-11-12T09:23:05.899Z,18.55
2022-11-12T09:25:35.113Z,19.40
2022-11-12T09:28:08.010Z,16.08
2022-11-12T09:30:36.177Z,15.20
2022-11-12T09:33:04.116Z,17.00
2022-11-12T09:35:32.183Z,16.42
2022-11-12T09:38:00.725Z,15.57
2022-11-12T09:40:38.185Z,20.20
2022-11-12T09:43:18.837Z,18.13
2022-11-12T09:46:06.363Z,22.10
2022-11-12T09:48:38.381Z,19.80
2022-11-12T09:51:09.258Z,21.23
2022-11-12T09:53:44.274Z,17.33
2022-11-12T09:56:15.461Z,19.60
2022-11-12T09:58:43.724Z,18.00
2022-11-12T10:01:15.544Z,16.20
2022-11-12T10:03:50.164Z,16.33
2022-11-12T10:06:20.598Z,17.63
2022-11-12T10:08:52.592Z,17.42
2022-11-12T10:12:05.064Z,18.70
2022-11-12T10:14:46.410Z,20.15
2022-11-12T10:17:19.429Z,18.53
2022-11-12T10:19:54.221Z,17.90
2022-11-12T10:22:30.543Z,18.55
2022-11-12T10:24:58.912Z,20.83
2022-11-12T10:27:35.269Z,20.45
2022-11-12T10:30:05.069Z,21.52
2022-11-12T10:32:33.240Z,20.20
2022-11-12T10:35:01.115Z,18.67
2022-11-12T10:37:35.149Z,19.77
2022-11-12T10:40:28.764Z,18.48
2022-11-12T10:42:59.563Z,19.63
2022-11-12T10:45:27.955Z,18.77
2022-11-12T10:47:56.191Z,19.70
2022-11-12T10:50:26.917Z,19.75
2022-11-12T10:52:56.958Z,19.77
2022-11-12T10:55:25.971Z,20.40
2022-11-12T10:58:19.954Z,20.48
2022-11-12T11:00:56.775Z,19.50
2022-11-12T11:03:26.407Z,20.25
2022-11-12T11:05:56.929Z,19.27
2022-11-12T11:08:43.066Z,19.40
2022-11-12T11:11:28.329Z,21.95
2022-11-12T11:13:59.368Z,19.45
2022-11-12T11:16:28.369Z,19.88
2022-11-12T11:18:58.030Z,20.48
2022-11-12T11:22:03.144Z,17.38
2022-11-12T11:24:38.262Z,17.65
2022-11-12T11:27:09.290Z,15.55
2022-11-12T11:29:57.764Z,17.15
2022-11-12T11:32:39.054Z,18.02
2022-11-12T11:35:16.204Z,17.85
2022-11-12T11:37:48.878Z,16.80
2022-11-12T11:40:22.518Z,17.73
2022-11-12T11:43:06.926Z,16.75
2022-11-12T11:45:51.411Z,17.95
2022-11-12T11:48:28.922Z,19.67
2022-11-12T11:51:00.982Z,21.70
2022-11-12T11:53:31.642Z,20.13
2022-11-12T11:56:02.407Z,20.23
2022-11-12T11:58:43.612Z,20.10
2022-11-12T12:01:18.906Z,22.92
2022-11-12T12:04:08.196Z,20.52
2022-11-12T12:06:42.193Z,23.42
2022-11-12T12:09:22.891Z,23.05
2022-11-12T12:11:55.864Z,20.73
2022-11-12T12:14:33.392Z,19.83
2022-11-12T12:17:09.356Z,18.83
2022-11-12T12:19:46.095Z,19.27
2022-11-12T12:22:16.640Z,20.45
2022-11-12T12:24:50.191Z,20.75
2022-11-12T12:27:20.732Z,23.33
2022-11-12T12:29:51.734Z,19.70
2022-11-12T12:32:24.658Z,19.33
2022-11-12T12:34:57.705Z,19.45
2022-11-12T12:37:28.623Z,18.88
2022-11-12T12:40:03.087Z,18.88
2022-11-12T12:42:33.132Z,18.10
2022-11-12T12:45:15.983Z,19.10
2022-11-12T12:47:45.652Z,17.05
2022-11-12T12:50:15.734Z,18.33
2022-11-12T12:53:03.266Z,18.48
2022-11-12T12:55:40.668Z,18.10
2022-11-12T12:58:18.044Z,21.13
2022-11-12T13:00:48.825Z,17.55
2022-11-12T13:03:46.144Z,16.70
2022-11-12T13:06:16.540Z,17.63
2022-11-12T13:08:44.214Z,18.70
2022-11-12T13:11:12.083Z,18.33
2022-11-12T13:13:40.307Z,17.75
2022-11-12T13:16:08.665Z,18.85
2022-11-12T13:19:03.085Z,17.23
2022-11-12T13:21:30.920Z,16.25
2022-11-12T13:24:10.987Z,17.25
2022-11-12T13:26:46.829Z,17.33
2022-11-12T13:29:43.640Z,18.17
2022-11-12T13:32:32.356Z,18.85
2022-11-12T13:35:29.757Z,20.63
2022-11-12T13:38:00.474Z,24.15
2022-11-12T13:40:41.296Z,23.73
2022-11-12T13:43:14.626Z,20.02
2022-11-12T13:45:46.131Z,21.15
2022-11-12T13:48:17.332Z,24.50
2022-11-12T13:50:52.368Z,21.23
2022-11-12T13:53:21.820Z,18.30
2022-11-12T13:55:49.680Z,18.60
2022-11-12T13:58:20.488Z,17.80
2022-11-12T14:00:55.124Z,18.50
2022-11-12T14:03:23.124Z,17.98
2022-11-12T14:05:52.384Z,17.98
2022-11-12T14:08:29.620Z,18.27
2022-11-12T14:11:15.326Z,18.17
2022-11-12T14:13:52.477Z,19.80
2022-11-12T14:16:29.390Z,19.23
2022-11-12T14:19:13.501Z,18.63
2022-11-12T14:21:42.743Z,19.15
2022-11-12T14:24:12.263Z,19.33
2022-11-12T14:26:41.766Z,19.83
2022-11-12T14:29:17.776Z,17.55
2022-11-12T14:31:45.687Z,17.75
2022-11-12T14:34:23.791Z,18.80
2022-11-12T14:36:55.909Z,18.70
2022-11-12T14:39:25.900Z,18.52
2022-11-12T14:41:55.383Z,18.60
2022-11-12T14:44:26.483Z,19.75
2022-11-12T14:46:56.219Z,19.13
2022-11-12T14:49:29.404Z,18.70
2022-11-12T14:52:05.519Z,19.67
2022-11-12T14:54:36.243Z,19.58
2022-11-12T14:57:04.824Z,19.20
2022-11-12T14:59:32.846Z,19.92
2022-11-12T15:05:00.477Z,18.63
2022-11-12T15:07:32.268Z,20.17
2022-11-12T15:10:00.358Z,22.13
2022-11-12T15:12:30.217Z,21.00
2022-11-12T15:15:09.371Z,19.48
2022-11-12T15:17:38.336Z,19.80
2022-11-12T15:20:08.117Z,21.10
2022-11-12T15:22:37.261Z,21.67
2022-11-12T15:25:13.269Z,20.88
2022-11-12T15:27:42.074Z,22.42
2022-11-12T15:30:17.285Z,20.65
2022-11-12T15:32:45.193Z,22.42
2022-11-12T15:35:38.047Z,22.50
2022-11-12T15:38:13.936Z,22.33
2022-11-12T15:40:44.898Z,23.27
2022-11-12T15:43:17.450Z,25.00
2022-11-12T15:45:49.440Z,25.20
2022-11-12T15:48:17.221Z,28.05
2022-11-12T15:50:45.012Z,36.55
2022-11-12T15:53:14.473Z,27.65
2022-11-12T15:55:42.869Z,28.65
2022-11-12T15:58:16.047Z,26.90
2022-11-12T16:00:43.792Z,30.05
2022-11-12T16:03:15.217Z,30.83
2022-11-12T16:05:43.631Z,28.65
2022-11-12T16:08:11.445Z,27.52
2022-11-12T16:10:41.970Z,27.52
2022-11-12T16:13:15.249Z,30.05
2022-11-12T16:15:43.552Z,29.05
2022-11-12T16:18:13.034Z,31.27
2022-11-12T16:20:41.801Z,30.52
2022-11-12T16:23:12.844Z,33.53
2022-11-12T16:25:44.321Z,31.83
2022-11-12T16:28:21.986Z,33.17
2022-11-12T16:30:54.806Z,29.88
2022-11-12T16:33:26.416Z,31.92
2022-11-12T16:35:58.310Z,35.78
2022-11-12T16:38:27.675Z,33.50
2022-11-12T16:40:58.111Z,35.78
2022-11-12T16:43:28.975Z,32.17
2022-11-12T16:45:57.783Z,32.97
2022-11-12T16:48:26.790Z,33.85
2022-11-12T16:50:55.752Z,30.23
2022-11-12T16:53:24.290Z,30.80
